Time;durP1;ratioP1;P1;durP2;ratioP2;P2;SDS_P1;SDS_P2;PMS_P1;PMS_P2;Temp;Humidity;BMP_temperature;BMP_pressure;BME280_temperature;BME280_humidity;BME280_pressure;Samples;Min_cycle;Max_cycle;Signal;HPM_P1;HPM_P2
2023/04/26 00:01:18;;;;;;;2.50;1.10;;;;;;;11.21;100.00;98676.41;105612;1260;61096;-50
2023/04/26 00:03:45;;;;;;;3.00;1.10;;;;;;;11.21;100.00;98677.68;105235;1259;62264;-49
2023/04/26 00:06:13;;;;;;;2.00;1.10;;;;;;;11.20;100.00;98680.06;105117;1260;74110;-50
2023/04/26 00:08:41;;;;;;;3.20;1.00;;;;;;;11.19;100.00;98679.64;105738;1256;65359;-48
2023/04/26 00:11:07;;;;;;;7.40;1.20;;;;;;;11.17;100.00;98678.33;105304;1258;72994;-49
2023/04/26 00:13:35;;;;;;;4.90;1.30;;;;;;;11.15;100.00;98677.74;105317;1259;62539;-47
2023/04/26 00:16:03;;;;;;;1.10;1.00;;;;;;;11.14;100.00;98677.66;105696;1260;60562;-47
2023/04/26 00:18:30;;;;;;;1.70;0.90;;;;;;;11.12;100.00;98676.54;105561;1256;72003;-46
2023/04/26 00:20:57;;;;;;;1.90;0.90;;;;;;;11.10;100.00;98680.59;105223;1260;69050;-47
2023/04/26 00:23:25;;;;;;;1.60;1.00;;;;;;;11.08;100.00;98679.49;105426;1257;73087;-49
2023/04/26 00:25:51;;;;;;;2.80;1.00;;;;;;;11.05;100.00;98681.32;105311;1258;60916;-49
2023/04/26 00:28:18;;;;;;;6.00;1.00;;;;;;;11.03;100.00;98680.04;105324;1255;60436;-49
2023/04/26 00:30:47;;;;;;;2.00;0.80;;;;;;;10.99;100.00;98680.38;105253;1259;74434;-46
2023/04/26 00:33:14;;;;;;;3.90;1.00;;;;;;;10.98;100.00;98679.41;108838;1256;69276;-52
2023/04/26 00:35:41;;;;;;;2.60;1.00;;;;;;;10.97;100.00;98680.77;108858;1257;72553;-50
2023/04/26 00:38:08;;;;;;;1.80;0.80;;;;;;;10.96;100.00;98682.61;108856;1256;63004;-50
2023/04/26 00:40:35;;;;;;;4.50;0.80;;;;;;;10.96;100.00;98683.69;108794;1254;58786;-50
2023/04/26 00:43:02;;;;;;;1.60;1.30;;;;;;;10.97;100.00;98679.80;108868;1255;73695;-51
2023/04/26 00:45:29;;;;;;;3.50;1.30;;;;;;;10.98;100.00;98681.94;108811;1256;69663;-52
2023/04/26 00:47:56;;;;;;;1.50;0.90;;;;;;;10.98;100.00;98681.70;108787;1256;71429;-51
2023/04/26 00:50:23;;;;;;;1.20;1.00;;;;;;;10.98;100.00;98678.86;108882;1256;61264;-51
2023/04/26 00:52:50;;;;;;;4.40;1.30;;;;;;;10.97;100.00;98679.23;108914;1254;60290;-50
2023/04/26 00:55:17;;;;;;;1.90;1.10;;;;;;;10.97;100.00;98676.80;108961;1254;72199;-51
2023/04/26 00:57:44;;;;;;;4.80;1.20;;;;;;;10.97;100.00;98678.80;108804;1255;69168;-50
2023/04/26 01:00:11;;;;;;;1.80;1.00;;;;;;;10.95;100.00;98672.27;108762;1256;71731;-50
2023/04/26 01:02:38;;;;;;;2.00;0.80;;;;;;;10.95;100.00;98677.51;108803;1255;59870;-50
2023/04/26 01:05:05;;;;;;;3.50;1.00;;;;;;;10.93;100.00;98671.50;108815;1254;58827;-51
2023/04/26 01:07:32;;;;;;;2.40;0.90;;;;;;;10.92;100.00;98668.17;108980;1255;74518;-50
2023/04/26 01:10:04;;;;;;;1.30;0.80;;;;;;;10.91;100.00;98666.76;108706;1254;68934;-50
2023/04/26 01:12:31;;;;;;;2.40;0.80;;;;;;;10.90;100.00;98664.67;108797;1260;73982;-51
2023/04/26 01:14:58;;;;;;;1.90;1.10;;;;;;;10.89;100.00;98663.84;108798;1261;60694;-50
2023/04/26 01:17:25;;;;;;;1.60;0.80;;;;;;;10.90;100.00;98664.38;108855;1255;58501;-50
2023/04/26 01:19:52;;;;;;;1.90;0.70;;;;;;;10.90;100.00;98660.05;106399;1254;75678;-52
2023/04/26 01:22:19;;;;;;;1.20;0.70;;;;;;;10.92;100.00;98660.64;105108;1261;69124;-51
2023/04/26 01:24:50;;;;;;;1.60;0.70;;;;;;;10.94;100.00;98656.03;104924;1256;75002;-51
2023/04/26 01:27:17;;;;;;;2.60;0.70;;;;;;;10.95;100.00;98658.06;106723;1258;62707;-48
2023/04/26 01:29:45;;;;;;;1.20;0.80;;;;;;;10.97;100.00;98656.48;105018;1260;62091;-47
2023/04/26 01:32:11;;;;;;;3.70;0.90;;;;;;;11.00;100.00;98651.84;105046;1260;74419;-51
2023/04/26 01:34:38;;;;;;;2.20;0.90;;;;;;;11.02;100.00;98647.05;104940;1260;67066;-49
2023/04/26 01:37:06;;;;;;;1.00;0.90;;;;;;;11.03;100.00;98645.93;105003;1256;73543;-52
2023/04/26 01:39:35;;;;;;;3.50;1.00;;;;;;;11.01;100.00;98642.42;105286;1260;62325;-50
2023/04/26 01:42:03;;;;;;;2.90;0.90;;;;;;;10.98;100.00;98643.84;105653;1256;60428;-51
2023/04/26 01:44:30;;;;;;;1.10;1.00;;;;;;;10.95;100.00;98642.61;105035;1260;74713;-54
2023/04/26 01:47:00;;;;;;;1.70;0.90;;;;;;;10.93;100.00;98644.24;108867;1255;69651;-50
2023/04/26 01:49:26;;;;;;;2.40;0.90;;;;;;;10.90;100.00;98643.32;106362;1259;71479;-52
2023/04/26 01:51:54;;;;;;;1.30;0.90;;;;;;;10.90;100.00;98643.55;105104;1256;63846;-51
2023/04/26 01:54:22;;;;;;;1.30;0.80;;;;;;;10.90;100.00;98642.28;105037;1262;61351;-51
2023/04/26 01:56:49;;;;;;;1.70;0.80;;;;;;;10.90;100.00;98642.28;105113;1254;72304;-53
2023/04/26 01:59:16;;;;;;;1.40;0.90;;;;;;;10.89;100.00;98643.35;105347;1254;67703;-52
2023/04/26 02:01:43;;;;;;;2.80;1.10;;;;;;;10.90;100.00;98635.80;105222;1260;73047;-51
2023/04/26 02:04:11;;;;;;;3.20;1.10;;;;;;;10.92;100.00;98632.09;105118;1257;62862;-52
2023/04/26 02:06:38;;;;;;;2.10;0.70;;;;;;;10.93;100.00;98626.77;105188;1256;62016;-51
2023/04/26 02:09:05;;;;;;;1.80;0.80;;;;;;;10.95;100.00;98620.77;105112;1256;74516;-52
2023/04/26 02:11:31;;;;;;;4.30;0.90;;;;;;;10.96;100.00;98619.95;105121;1256;68093;-53
2023/04/26 02:13:58;;;;;;;3.20;0.90;;;;;;;10.97;100.00;98618.41;105027;1260;72351;-52
2023/04/26 02:16:25;;;;;;;1.80;0.90;;;;;;;10.98;100.00;98619.46;104982;1256;62997;-50
2023/04/26 02:18:53;;;;;;;2.30;1.00;;;;;;;10.99;100.00;98615.27;105059;1258;60408;-51
2023/04/26 02:21:21;;;;;;;1.60;0.90;;;;;;;11.00;100.00;98613.23;104998;1256;75839;-51
2023/04/26 02:23:47;;;;;;;1.00;0.80;;;;;;;11.01;100.00;98609.58;105859;1257;69741;-51
2023/04/26 02:26:14;;;;;;;1.90;0.80;;;;;;;11.01;100.00;98606.69;104978;1261;74995;-51
2023/04/26 02:28:42;;;;;;;1.70;1.00;;;;;;;11.00;100.00;98605.85;105094;1256;63903;-52
2023/04/26 02:31:09;;;;;;;3.10;0.80;;;;;;;11.01;100.00;98599.70;105043;1256;61018;-51
2023/04/26 02:33:36;;;;;;;1.20;0.80;;;;;;;11.02;100.00;98595.14;106637;1259;74565;-51
2023/04/26 02:36:04;;;;;;;3.90;1.00;;;;;;;11.03;100.00;98594.39;105076;1254;69263;-52
2023/04/26 02:38:34;;;;;;;1.90;1.10;;;;;;;11.02;100.00;98590.45;105851;1260;74641;-50
2023/04/26 02:41:02;;;;;;;3.90;1.00;;;;;;;11.02;100.00;98588.54;105038;1255;61890;-50
2023/04/26 02:43:29;;;;;;;1.30;1.20;;;;;;;11.00;100.00;98590.60;105237;1254;62326;-51
2023/04/26 02:45:57;;;;;;;1.30;0.90;;;;;;;10.99;100.00;98588.17;105044;1258;75760;-50
2023/04/26 02:48:24;;;;;;;1.00;0.80;;;;;;;10.95;100.00;98584.33;105287;1256;67841;-50
2023/04/26 02:50:52;;;;;;;1.40;1.10;;;;;;;10.91;100.00;98583.13;105098;1257;73686;-50
2023/04/26 02:53:18;;;;;;;2.00;1.20;;;;;;;10.87;100.00;98587.17;105020;1256;64245;-50
2023/04/26 02:55:45;;;;;;;1.20;0.80;;;;;;;10.85;100.00;98584.67;105118;1260;61260;-50
2023/04/26 02:58:12;;;;;;;1.20;0.90;;;;;;;10.84;100.00;98586.52;105062;1256;74119;-51
2023/04/26 03:00:45;;;;;;;0.70;0.60;;;;;;;10.80;100.00;98585.88;105196;1256;67739;-50
2023/04/26 03:03:11;;;;;;;2.30;1.00;;;;;;;10.70;100.00;98584.23;105115;1258;72365;-50
2023/04/26 03:05:40;;;;;;;1.30;0.80;;;;;;;10.62;100.00;98583.34;105186;1256;62346;-50
2023/04/26 03:08:07;;;;;;;0.80;0.80;;;;;;;10.59;100.00;98584.94;106316;1254;62418;-50
2023/04/26 03:10:35;;;;;;;1.90;0.70;;;;;;;10.61;100.00;98583.61;105139;1254;73913;-50
2023/04/26 03:13:03;;;;;;;2.30;0.90;;;;;;;10.63;100.00;98578.99;104993;1261;68595;-50
2023/04/26 03:15:30;;;;;;;2.80;1.30;;;;;;;10.65;100.00;98577.23;105150;1261;75004;-51
2023/04/26 03:17:57;;;;;;;1.10;0.90;;;;;;;10.65;100.00;98578.48;105107;1257;60690;-50
2023/04/26 03:20:25;;;;;;;1.60;0.70;;;;;;;10.65;100.00;98572.56;105325;1256;60637;-52
2023/04/26 03:22:52;;;;;;;1.00;0.90;;;;;;;10.65;100.00;98567.16;105531;1259;74340;-50
2023/04/26 03:25:19;;;;;;;1.50;1.00;;;;;;;10.65;100.00;98568.05;105224;1260;68940;-51
2023/04/26 03:27:46;;;;;;;1.40;1.10;;;;;;;10.66;100.00;98560.30;105229;1260;74644;-50
2023/04/26 03:30:13;;;;;;;1.00;0.70;;;;;;;10.66;100.00;98561.55;105304;1258;60848;-50
2023/04/26 03:32:40;;;;;;;1.50;1.00;;;;;;;10.66;100.00;98557.77;108890;1256;59655;-51
2023/04/26 03:35:09;;;;;;;2.00;0.90;;;;;;;10.66;100.00;98553.13;108890;1256;73912;-51
2023/04/26 03:37:38;;;;;;;2.00;0.80;;;;;;;10.66;100.00;98548.11;108813;1256;65974;-51
2023/04/26 03:40:07;;;;;;;1.40;1.00;;;;;;;10.66;100.00;98549.32;108856;1257;75062;-51
2023/04/26 03:42:35;;;;;;;1.70;1.00;;;;;;;10.67;100.00;98547.63;108866;1254;60690;-51
2023/04/26 03:45:03;;;;;;;2.90;0.70;;;;;;;10.68;100.00;98546.49;108914;1255;62689;-52
2023/04/26 03:47:30;;;;;;;1.90;1.10;;;;;;;10.69;100.00;98548.45;108766;1256;75043;-51
2023/04/26 03:49:57;;;;;;;1.90;1.10;;;;;;;10.69;100.00;98549.52;107783;1258;68629;-50
2023/04/26 03:52:24;;;;;;;4.20;0.90;;;;;;;10.70;100.00;98552.34;105341;1256;72266;-50
2023/04/26 03:54:51;;;;;;;1.10;0.90;;;;;;;10.70;100.00;98549.09;105374;1256;63935;-48
2023/04/26 03:57:18;;;;;;;1.30;0.90;;;;;;;10.71;100.00;98546.35;105327;1256;61502;-48
2023/04/26 03:59:44;;;;;;;2.50;1.10;;;;;;;10.69;100.00;98546.23;105269;1255;75031;-52
2023/04/26 04:02:11;;;;;;;2.90;0.80;;;;;;;10.69;100.00;98545.04;105197;1256;68386;-52
2023/04/26 04:04:39;;;;;;;1.70;1.00;;;;;;;10.68;100.00;98542.73;108832;1255;73024;-51
2023/04/26 04:07:06;;;;;;;2.30;0.80;;;;;;;10.68;100.00;98544.02;105473;1259;62163;-51
2023/04/26 04:09:33;;;;;;;1.90;1.30;;;;;;;10.68;100.00;98547.44;106653;1254;61601;-52
2023/04/26 04:12:00;;;;;;;1.30;0.90;;;;;;;10.68;100.00;98545.25;105441;1256;73421;-52
2023/04/26 04:14:27;;;;;;;2.60;1.00;;;;;;;10.69;100.00;98542.17;105245;1256;67521;-51
2023/04/26 04:16:54;;;;;;;2.10;1.00;;;;;;;10.68;100.00;98542.77;108904;1254;74935;-51
2023/04/26 04:19:21;;;;;;;1.90;1.70;;;;;;;10.68;100.00;98546.73;107573;1256;61901;-53
2023/04/26 04:21:47;;;;;;;1.00;0.90;;;;;;;10.66;100.00;98545.04;105213;1261;60703;-50
2023/04/26 04:24:15;;;;;;;1.90;0.90;;;;;;;10.65;100.00;98545.48;105295;1258;72999;-50
2023/04/26 04:26:41;;;;;;;2.60;1.10;;;;;;;10.63;100.00;98547.91;107421;1257;69562;-51
2023/04/26 04:29:08;;;;;;;1.80;1.30;;;;;;;10.63;100.00;98544.52;105345;1260;71656;-52
2023/04/26 04:31:38;;;;;;;1.70;1.10;;;;;;;10.64;100.00;98543.54;105156;1261;62803;-51
2023/04/26 04:34:07;;;;;;;1.60;1.10;;;;;;;10.65;100.00;98539.55;105152;1256;61757;-51
2023/04/26 04:36:34;;;;;;;1.80;1.00;;;;;;;10.65;100.00;98541.30;105712;1260;73723;-50
2023/04/26 04:39:02;;;;;;;1.60;1.10;;;;;;;10.66;100.00;98542.15;105283;1260;70793;-49
2023/04/26 04:41:29;;;;;;;2.70;1.30;;;;;;;10.69;100.00;98543.95;105808;1257;73910;-48
2023/04/26 04:43:56;;;;;;;1.90;1.00;;;;;;;10.71;100.00;98543.79;105137;1255;63874;-50
2023/04/26 04:46:24;;;;;;;6.30;1.60;;;;;;;10.72;100.00;98541.37;105026;1256;61016;-51
2023/04/26 04:48:52;;;;;;;2.10;1.50;;;;;;;10.74;100.00;98541.09;105187;1256;74927;-50
2023/04/26 04:51:20;;;;;;;3.30;1.30;;;;;;;10.76;100.00;98537.70;105588;1261;67968;-49
2023/04/26 04:53:46;;;;;;;3.00;1.10;;;;;;;10.78;100.00;98538.30;105334;1256;73316;-48
2023/04/26 04:56:14;;;;;;;4.10;1.30;;;;;;;10.80;100.00;98536.92;107265;1258;62027;-51
2023/04/26 04:58:41;;;;;;;3.10;1.40;;;;;;;10.81;100.00;98537.92;104964;1256;60388;-51
2023/04/26 05:01:08;;;;;;;4.20;1.10;;;;;;;10.81;100.00;98543.98;104741;1261;74642;-52
2023/04/26 05:03:49;;;;;;;2.00;1.30;;;;;;;10.81;100.00;98543.63;104582;1256;70069;-51
2023/04/26 05:06:17;;;;;;;5.50;1.40;;;;;;;10.83;100.00;98541.33;104779;1261;72580;-51
2023/04/26 05:08:44;;;;;;;1.30;1.10;;;;;;;10.86;100.00;98541.15;105105;1259;60561;-50
2023/04/26 05:11:10;;;;;;;1.40;0.90;;;;;;;10.88;100.00;98546.76;104760;1260;62643;-54
2023/04/26 05:13:37;;;;;;;4.50;1.30;;;;;;;10.90;100.00;98542.29;104679;1260;76159;-52
2023/04/26 05:16:04;;;;;;;2.10;1.20;;;;;;;10.93;100.00;98546.24;105118;1258;67540;-53
2023/04/26 05:18:31;;;;;;;1.00;0.90;;;;;;;10.95;100.00;98545.89;104885;1256;72979;-54
2023/04/26 05:20:58;;;;;;;1.90;1.00;;;;;;;10.98;100.00;98543.17;105024;1261;62694;-54
2023/04/26 05:23:25;;;;;;;2.50;1.20;;;;;;;11.00;100.00;98542.30;105187;1254;62521;-53
2023/04/26 05:25:52;;;;;;;2.90;1.00;;;;;;;11.02;100.00;98544.52;105171;1256;72296;-53
2023/04/26 05:28:37;;;;;;;1.30;0.90;;;;;;;11.04;100.00;98540.77;105145;1260;68197;-53
2023/04/26 05:31:24;;;;;;;2.90;1.00;;;;;;;11.04;100.00;98539.35;105114;1256;74972;-53
2023/04/26 05:34:09;;;;;;;1.40;0.90;;;;;;;11.02;100.00;98537.70;106867;1256;62524;-52
2023/04/26 05:36:37;;;;;;;1.30;0.80;;;;;;;11.00;100.00;98536.40;105044;1256;62108;-51
2023/04/26 05:39:05;;;;;;;1.00;0.80;;;;;;;10.99;100.00;98535.20;104403;1256;76004;-52
2023/04/26 05:41:32;;;;;;;1.50;0.70;;;;;;;11.00;100.00;98534.08;105025;1259;68660;-52
2023/04/26 05:43:59;;;;;;;1.00;0.60;;;;;;;11.02;100.00;98532.86;105118;1256;75139;-52
2023/04/26 05:46:26;;;;;;;8.80;0.70;;;;;;;11.06;100.00;98530.60;104928;1255;64215;-52
2023/04/26 05:48:54;;;;;;;1.90;0.80;;;;;;;11.12;100.00;98524.45;105039;1261;62529;-50
2023/04/26 05:51:20;;;;;;;1.10;0.60;;;;;;;11.18;100.00;98520.41;104398;1261;75818;-51
2023/04/26 05:53:47;;;;;;;3.90;0.60;;;;;;;11.24;100.00;98521.44;104707;1256;70277;-51
2023/04/26 05:56:15;;;;;;;0.70;0.60;;;;;;;11.31;100.00;98524.52;104814;1256;73024;-52
2023/04/26 05:58:42;;;;;;;3.30;0.80;;;;;;;11.39;100.00;98518.94;104832;1256;60810;-51
2023/04/26 06:01:09;;;;;;;1.10;0.60;;;;;;;11.47;100.00;98520.14;105006;1260;61824;-52
2023/04/26 06:03:37;;;;;;;1.60;0.70;;;;;;;11.56;100.00;98519.52;104656;1261;74278;-52
2023/04/26 06:06:04;;;;;;;3.30;0.80;;;;;;;11.63;100.00;98517.58;104756;1254;66932;-52
2023/04/26 06:08:31;;;;;;;4.80;0.60;;;;;;;11.69;100.00;98521.05;104741;1256;72884;-53
2023/04/26 06:10:57;;;;;;;1.90;0.70;;;;;;;11.75;100.00;98516.85;105118;1258;60842;-51
2023/04/26 06:13:25;;;;;;;1.70;0.80;;;;;;;11.82;100.00;98514.05;104957;1261;60343;-52
2023/04/26 06:15:52;;;;;;;2.80;0.70;;;;;;;11.90;100.00;98517.45;106735;1256;74205;-50
2023/04/26 06:18:20;;;;;;;3.40;0.70;;;;;;;11.97;100.00;98509.18;105155;1258;67099;-52
2023/04/26 06:20:47;;;;;;;2.80;0.60;;;;;;;12.04;100.00;98509.55;105033;1261;74958;-53
2023/04/26 06:23:13;;;;;;;2.40;0.70;;;;;;;12.13;100.00;98516.27;107818;1258;61259;-54
2023/04/26 06:25:44;;;;;;;4.80;0.80;;;;;;;12.21;100.00;98509.89;105260;1258;61091;-53
2023/04/26 06:28:11;;;;;;;2.70;0.80;;;;;;;12.27;100.00;98509.98;106396;1256;75865;-52
2023/04/26 06:30:38;;;;;;;3.10;0.70;;;;;;;12.31;100.00;98505.77;105284;1256;68526;-52
2023/04/26 06:33:06;;;;;;;2.00;0.80;;;;;;;12.34;100.00;98511.95;105148;1257;71946;-52
2023/04/26 06:35:38;;;;;;;1.30;0.60;;;;;;;12.38;100.00;98510.45;105440;1256;62666;-52
2023/04/26 06:38:06;;;;;;;0.90;0.70;;;;;;;12.39;100.00;98511.92;105281;1261;60413;-53
2023/04/26 06:40:37;;;;;;;3.70;1.00;;;;;;;12.41;100.00;98520.11;108721;1255;73775;-54
2023/04/26 06:43:04;;;;;;;2.20;0.70;;;;;;;12.42;100.00;98516.02;108732;1256;65451;-53
2023/04/26 06:45:38;;;;;;;;;;;;;;;12.42;100.00;98513.67;108882;1254;72411;-53
2023/04/26 06:48:08;;;;;;;3.40;1.10;;;;;;;12.44;100.00;98511.77;108820;1256;62467;-53
2023/04/26 06:50:39;;;;;;;2.30;0.60;;;;;;;12.45;100.00;98505.88;108849;1254;62097;-53
2023/04/26 06:53:06;;;;;;;1.70;0.70;;;;;;;12.49;100.00;98511.20;108850;1259;74320;-54
2023/04/26 06:55:33;;;;;;;1.60;0.60;;;;;;;12.54;100.00;98508.14;108851;1256;69262;-53
2023/04/26 06:58:00;;;;;;;4.30;0.90;;;;;;;12.59;100.00;98506.10;106865;1256;72717;-49
2023/04/26 07:00:28;;;;;;;2.50;0.70;;;;;;;12.65;100.00;98508.70;105426;1258;60510;-52
2023/04/26 07:02:55;;;;;;;3.90;0.80;;;;;;;12.71;100.00;98505.55;108888;1258;61218;-53
2023/04/26 07:05:22;;;;;;;1.10;0.70;;;;;;;12.75;100.00;98504.48;108918;1254;74561;-53
2023/04/26 07:07:49;;;;;;;2.40;0.80;;;;;;;12.79;100.00;98503.61;108789;1253;67545;-54
2023/04/26 07:10:16;;;;;;;3.40;0.80;;;;;;;12.84;100.00;98498.23;108814;1259;74541;-52
2023/04/26 07:12:43;;;;;;;1.60;0.70;;;;;;;12.89;100.00;98493.73;108422;1256;60863;-54
2023/04/26 07:15:10;;;;;;;2.50;0.90;;;;;;;12.94;100.00;98497.87;105497;1256;61192;-52
2023/04/26 07:17:37;;;;;;;1.30;0.80;;;;;;;12.99;100.00;98495.48;108906;1257;73752;-53
2023/04/26 07:20:04;;;;;;;4.50;0.80;;;;;;;13.07;100.00;98498.07;108825;1254;65760;-53
2023/04/26 07:22:31;;;;;;;2.10;0.70;;;;;;;13.17;100.00;98499.84;108908;1254;73240;-52
2023/04/26 07:24:58;;;;;;;2.90;0.70;;;;;;;13.30;100.00;98497.71;108833;1256;61436;-54
2023/04/26 07:27:24;;;;;;;2.80;0.90;;;;;;;13.44;100.00;98499.67;108785;1258;61279;-53
2023/04/26 07:29:55;;;;;;;2.00;0.90;;;;;;;13.57;100.00;98496.92;108885;1256;72068;-54
2023/04/26 07:32:22;;;;;;;4.50;0.80;;;;;;;13.72;100.00;98494.56;108779;1254;68916;-53
2023/04/26 07:34:49;;;;;;;1.10;0.90;;;;;;;13.83;100.00;98489.48;108889;1259;72607;-53
2023/04/26 07:37:15;;;;;;;1.70;0.90;;;;;;;13.92;100.00;98491.96;106297;1256;62645;-52
2023/04/26 07:39:42;;;;;;;4.40;1.00;;;;;;;14.00;100.00;98493.30;105358;1255;62491;-51
2023/04/26 07:44:40;;;;;;;2.20;1.00;;;;;;;14.11;100.00;98497.27;102324;1292;601034;-54
2023/04/26 07:47:13;;;;;;;3.60;1.10;;;;;;;14.15;100.00;98495.30;104256;1269;59414;-53
2023/04/26 07:49:40;;;;;;;4.10;1.20;;;;;;;14.22;100.00;98499.17;104375;1274;59670;-54
2023/04/26 07:52:07;;;;;;;4.50;1.00;;;;;;;14.30;100.00;98494.43;104364;1269;73737;-52
2023/04/26 07:54:34;;;;;;;3.30;0.90;;;;;;;14.35;100.00;98492.33;104449;1269;67742;-52
2023/04/26 07:57:01;;;;;;;1.10;0.90;;;;;;;14.39;100.00;98496.34;104236;1269;71089;-52
2023/04/26 07:59:28;;;;;;;3.10;1.00;;;;;;;14.43;100.00;98494.10;104032;1270;204362;-51
2023/04/26 08:01:54;;;;;;;1.20;1.10;;;;;;;14.44;100.00;98496.32;104566;1267;61078;-52
2023/04/26 08:04:31;;;;;;;5.90;1.20;;;;;;;14.46;100.00;98494.57;105610;1266;74276;-53
2023/04/26 08:07:00;;;;;;;6.70;1.20;;;;;;;14.49;100.00;98493.75;105750;1266;66004;-53
2023/04/26 08:09:30;;;;;;;1.60;1.10;;;;;;;14.53;100.00;98491.80;104506;1269;71800;-52
2023/04/26 08:11:56;;;;;;;4.50;1.00;;;;;;;14.55;100.00;98492.67;104399;1273;61231;-50
2023/04/26 08:14:23;;;;;;;2.60;0.90;;;;;;;14.59;100.00;98493.45;104002;1267;61404;-53
2023/04/26 08:16:50;;;;;;;4.30;0.90;;;;;;;14.63;100.00;98489.06;104031;1268;75097;-52
2023/04/26 08:19:17;;;;;;;2.60;1.00;;;;;;;14.66;100.00;98491.37;106328;1269;67429;-53
2023/04/26 08:21:44;;;;;;;3.70;1.00;;;;;;;14.67;100.00;98487.70;104460;1269;73677;-52
2023/04/26 08:24:11;;;;;;;2.00;0.90;;;;;;;14.68;100.00;98490.26;103741;1267;60328;-53
2023/04/26 08:26:38;;;;;;;2.30;0.90;;;;;;;14.71;100.00;98490.40;103935;1266;60203;-52
2023/04/26 08:29:05;;;;;;;1.60;0.90;;;;;;;14.74;100.00;98490.52;104304;1267;73584;-51
2023/04/26 08:31:32;;;;;;;1.40;0.80;;;;;;;14.79;100.00;98493.22;105097;1269;65825;-52
2023/04/26 08:33:59;;;;;;;5.50;1.20;;;;;;;14.84;100.00;98493.79;104469;1269;74902;-53
2023/04/26 08:36:26;;;;;;;2.50;0.80;;;;;;;14.88;100.00;98493.45;104259;1270;59737;-52
2023/04/26 08:38:55;;;;;;;4.10;1.00;;;;;;;14.89;100.00;98491.60;104145;1267;63012;-54
2023/04/26 08:41:23;;;;;;;1.00;0.90;;;;;;;14.89;100.00;98492.62;104660;1267;75763;-53
2023/04/26 08:43:51;;;;;;;3.20;1.00;;;;;;;14.91;100.00;98499.69;104383;1269;67182;-54
2023/04/26 08:46:19;;;;;;;2.40;1.20;;;;;;;14.91;100.00;98491.02;104583;1266;73434;-50
2023/04/26 08:48:58;;;;;;;4.00;1.30;;;;;;;14.91;100.00;98488.85;105292;1272;60845;-53
2023/04/26 08:51:26;;;;;;;1.30;1.20;;;;;;;14.93;100.00;98484.20;104617;1271;59680;-53
2023/04/26 08:53:52;;;;;;;1.50;0.90;;;;;;;14.98;100.00;98479.25;104465;1267;75030;-52
2023/04/26 08:56:21;;;;;;;2.40;1.20;;;;;;;15.05;100.00;98482.23;105322;1261;68736;-51
2023/04/26 08:58:48;;;;;;;2.30;0.90;;;;;;;15.11;100.00;98484.76;105245;1258;73027;-53
2023/04/26 09:01:15;;;;;;;2.10;0.90;;;;;;;15.13;100.00;98483.48;105012;1263;62487;-53
2023/04/26 09:03:42;;;;;;;0.70;0.60;;;;;;;15.14;100.00;98479.60;105192;1257;62258;-53
2023/04/26 09:06:09;;;;;;;2.20;0.80;;;;;;;15.16;100.00;98482.31;105352;1261;74633;-51
2023/04/26 09:08:36;;;;;;;4.70;0.80;;;;;;;15.21;100.00;98479.27;105114;1257;65949;-51
2023/04/26 09:11:02;;;;;;;1.70;0.90;;;;;;;15.25;100.00;98482.97;105236;1257;71879;-52
2023/04/26 09:13:29;;;;;;;1.80;0.90;;;;;;;15.29;100.00;98481.92;105072;1257;60811;-51
2023/04/26 09:15:56;;;;;;;1.30;0.80;;;;;;;15.28;100.00;98482.55;105105;1261;61543;-53
2023/04/26 09:18:23;;;;;;;1.60;0.90;;;;;;;15.25;100.00;98484.69;105204;1257;74184;-53
2023/04/26 09:21:07;;;;;;;2.20;0.90;;;;;;;15.18;100.00;98487.27;105224;1259;68492;-52
2023/04/26 09:23:34;;;;;;;2.20;0.70;;;;;;;15.06;100.00;98482.31;105670;1261;72082;-52
2023/04/26 09:26:20;;;;;;;2.10;0.80;;;;;;;14.96;100.00;98481.54;107108;1256;64048;-54
2023/04/26 09:28:47;;;;;;;1.00;0.70;;;;;;;14.86;100.00;98490.39;105116;1260;62435;-53
2023/04/26 09:31:35;;;;;;;2.60;0.70;;;;;;;14.78;100.00;98486.96;105021;1257;74464;-54
2023/04/26 09:34:01;;;;;;;1.20;0.70;;;;;;;14.68;100.00;98487.58;106251;1261;68845;-53
2023/04/26 09:36:28;;;;;;;0.90;0.70;;;;;;;14.63;100.00;98493.39;105092;1256;73842;-53
2023/04/26 09:38:55;;;;;;;2.10;0.80;;;;;;;14.62;100.00;98498.27;104734;1256;63124;-55
2023/04/26 09:41:22;;;;;;;4.30;1.20;;;;;;;14.59;100.00;98497.24;104536;1261;59548;-51
2023/04/26 09:43:51;;;;;;;1.10;0.70;;;;;;;14.58;100.00;98501.99;104867;1257;71656;-51
2023/04/26 09:46:22;;;;;;;1.10;0.70;;;;;;;14.57;100.00;98501.86;104585;1261;67290;-54
2023/04/26 09:49:02;;;;;;;1.50;0.90;;;;;;;14.57;100.00;98505.36;108743;1256;74334;-55
2023/04/26 09:51:29;;;;;;;2.60;1.10;;;;;;;14.57;100.00;98506.59;108885;1256;59601;-55
2023/04/26 09:53:56;;;;;;;3.60;1.30;;;;;;;14.56;100.00;98512.65;108717;1259;60396;-53
2023/04/26 09:56:22;;;;;;;1.20;1.00;;;;;;;14.57;100.00;98506.23;108886;1256;73481;-53
2023/04/26 09:58:56;;;;;;;2.50;1.10;;;;;;;14.59;100.00;98507.70;108902;1256;68904;-54
2023/04/26 10:01:24;;;;;;;3.20;0.90;;;;;;;14.59;100.00;98517.02;108700;1256;71339;-51
2023/04/26 10:03:51;;;;;;;2.90;0.90;;;;;;;14.59;100.00;98518.02;108810;1256;61859;-52
2023/04/26 10:06:18;;;;;;;1.50;0.90;;;;;;;14.55;100.00;98517.95;108777;1256;60736;-51
2023/04/26 10:08:45;;;;;;;3.70;0.90;;;;;;;14.54;100.00;98518.92;108896;1256;73620;-52
2023/04/26 10:11:12;;;;;;;1.80;1.00;;;;;;;14.57;100.00;98519.79;108745;1256;70093;-52
2023/04/26 10:13:40;;;;;;;2.20;1.10;;;;;;;14.58;100.00;98519.72;108736;1256;73157;-51
2023/04/26 10:16:08;;;;;;;2.30;0.90;;;;;;;14.59;100.00;98517.45;108619;1256;63656;-53
2023/04/26 10:18:35;;;;;;;4.20;1.10;;;;;;;14.61;100.00;98520.53;108595;1256;60785;-51
2023/04/26 10:21:09;;;;;;;6.30;1.40;;;;;;;14.63;100.00;98521.63;108608;1256;74628;-52
2023/04/26 10:23:36;;;;;;;2.80;1.40;;;;;;;14.66;100.00;98522.05;108770;1256;68111;-51
2023/04/26 10:26:04;;;;;;;1.80;1.20;;;;;;;14.72;100.00;98518.11;107395;1262;73364;-52
2023/04/26 10:28:43;;;;;;;5.50;1.50;;;;;;;14.79;100.00;98516.96;104984;1256;64650;-52
2023/04/26 10:31:10;;;;;;;2.10;1.10;;;;;;;14.85;100.00;98512.49;104627;1256;62436;-52
2023/04/26 10:33:37;;;;;;;3.30;1.60;;;;;;;14.93;100.00;98512.31;104224;1256;75312;-53
2023/04/26 10:36:14;;;;;;;5.10;0.90;;;;;;;15.01;100.00;98505.85;105133;1262;69963;-52
2023/04/26 10:38:52;;;;;;;1.80;1.20;;;;;;;15.11;100.00;98507.17;105048;1256;74930;-53
2023/04/26 10:41:27;;;;;;;0.90;0.90;;;;;;;15.19;100.00;98504.86;108503;1257;63296;-52
2023/04/26 10:43:54;;;;;;;1.10;0.90;;;;;;;15.24;100.00;98508.98;107819;1256;59755;-50
2023/04/26 10:46:32;;;;;;;1.90;1.10;;;;;;;15.21;100.00;98507.06;105857;1257;73098;-52
2023/04/26 10:49:11;;;;;;;2.20;1.00;;;;;;;15.15;100.00;98512.45;106238;1256;67424;-54
2023/04/26 10:51:38;;;;;;;1.90;1.00;;;;;;;15.11;100.00;98513.51;104813;1256;72964;-50
2023/04/26 10:54:06;;;;;;;2.30;1.20;;;;;;;15.08;100.00;98513.02;105011;1257;59889;-47
2023/04/26 10:56:49;;;;;;;2.50;1.20;;;;;;;15.07;100.00;98517.29;105041;1257;62348;-52
2023/04/26 10:59:18;;;;;;;2.40;0.90;;;;;;;15.04;100.00;98518.05;105109;1256;75589;-48
2023/04/26 11:02:09;;;;;;;1.00;0.80;;;;;;;15.05;100.00;98517.48;106149;1262;64912;-53
2023/04/26 11:04:52;;;;;;;2.20;0.70;;;;;;;15.08;100.00;98519.01;105076;1260;73748;-53
2023/04/26 11:07:37;;;;;;;1.30;0.80;;;;;;;15.11;100.00;98517.08;104560;1258;64314;-50
2023/04/26 11:10:11;;;;;;;1.40;1.10;;;;;;;15.13;100.00;98521.48;108172;1256;60429;-48
2023/04/26 11:12:40;;;;;;;1.40;0.90;;;;;;;15.10;100.00;98527.30;105652;1257;74192;-49
2023/04/26 11:15:11;;;;;;;1.20;0.80;;;;;;;15.08;100.00;98529.26;105230;1256;66918;-49
2023/04/26 11:17:38;;;;;;;4.60;0.90;;;;;;;15.08;100.00;98529.14;106821;1260;71481;-52
2023/04/26 11:20:08;;;;;;;1.40;1.00;;;;;;;15.09;100.00;98529.03;105144;1256;62652;-51
2023/04/26 11:22:39;;;;;;;0.90;0.80;;;;;;;15.09;100.00;98531.17;105618;1257;61017;-49
2023/04/26 11:25:06;;;;;;;1.00;0.90;;;;;;;15.08;100.00;98531.30;105270;1259;75024;-50